createdAt,value
2023-03-13T00:01:47.337Z,3.42
2023-03-13T00:06:48.813Z,3.03
2023-03-13T00:11:50.247Z,3.67
2023-03-13T00:16:51.697Z,2.90
2023-03-13T00:21:53.291Z,3.65
2023-03-13T00:26:55.733Z,3.40
2023-03-13T00:31:57.241Z,2.70
2023-03-13T00:36:58.718Z,3.35
2023-03-13T00:42:03.786Z,2.72
2023-03-13T00:47:07.010Z,3.30
2023-03-13T00:52:08.605Z,3.38
2023-03-13T00:57:10.058Z,2.42
2023-03-13T01:02:11.669Z,2.70
2023-03-13T01:07:13.236Z,2.88
2023-03-13T01:12:14.696Z,2.60
2023-03-13T01:17:16.153Z,2.85
2023-03-13T01:22:17.644Z,2.67
2023-03-13T01:27:19.446Z,2.95
2023-03-13T01:32:20.913Z,2.83
2023-03-13T01:37:22.469Z,3.45
2023-03-13T01:42:23.927Z,1.92
2023-03-13T01:47:25.408Z,2.90
2023-03-13T01:52:40.328Z,2.70
2023-03-13T01:57:53.723Z,1.95
2023-03-13T02:03:01.469Z,2.60
2023-03-13T02:08:11.948Z,2.72
2023-03-13T02:13:17.352Z,2.90
2023-03-13T02:18:18.807Z,2.50
2023-03-13T02:23:56.018Z,2.55
2023-03-13T02:28:57.640Z,2.75
2023-03-13T02:34:01.776Z,2.38
2023-03-13T02:39:05.773Z,1.90
2023-03-13T02:44:07.532Z,2.42
2023-03-13T02:49:30.039Z,2.30
2023-03-13T02:54:35.522Z,2.75
2023-03-13T02:59:42.955Z,2.85
2023-03-13T03:04:44.664Z,2.88
2023-03-13T03:09:46.518Z,2.30
2023-03-13T03:14:55.474Z,2.70
2023-03-13T03:20:00.879Z,2.15
2023-03-13T03:25:02.574Z,2.30
2023-03-13T03:30:07.651Z,1.95
2023-03-13T03:35:11.709Z,2.28
2023-03-13T03:45:15.418Z,1.75
2023-03-13T03:50:17.228Z,1.60
2023-03-13T03:55:28.643Z,2.50
2023-03-13T04:00:32.870Z,2.22
2023-03-13T04:05:34.791Z,2.47
2023-03-13T04:15:42.451Z,3.45
2023-03-13T04:20:45.556Z,2.50
2023-03-13T04:25:47.750Z,2.20
2023-03-13T04:36:06.923Z,2.42
2023-03-13T04:41:23.783Z,2.25
2023-03-13T04:46:49.123Z,2.40
2023-03-13T04:52:05.299Z,2.00
2023-03-13T04:57:24.322Z,1.90
2023-03-13T05:02:35.155Z,1.77
2023-03-13T05:07:58.566Z,2.40
2023-03-13T05:13:14.603Z,2.33
2023-03-13T05:18:48.193Z,2.75
2023-03-13T05:24:04.471Z,2.08
2023-03-13T05:29:31.809Z,1.70
2023-03-13T05:34:47.875Z,3.03
2023-03-13T05:40:04.335Z,2.80
2023-03-13T05:45:34.953Z,2.45
2023-03-13T05:50:54.087Z,2.08
2023-03-13T05:56:14.147Z,1.98
2023-03-13T06:01:26.533Z,2.50
2023-03-13T06:06:42.554Z,2.28
2023-03-13T06:16:45.993Z,3.03
2023-03-13T06:21:52.864Z,1.67
2023-03-13T06:26:54.346Z,2.83
2023-03-13T06:31:55.965Z,1.63
2023-03-13T06:36:58.724Z,2.00
2023-03-13T06:42:00.191Z,2.50
2023-03-13T06:47:01.743Z,2.72
2023-03-13T06:52:03.279Z,2.38
2023-03-13T06:57:04.711Z,1.83
2023-03-13T07:02:06.311Z,2.15
2023-03-13T07:07:07.795Z,2.30
2023-03-13T07:12:09.516Z,1.65
2023-03-13T07:22:12.428Z,2.20
2023-03-13T07:27:14.029Z,3.55
2023-03-13T07:32:15.884Z,2.17
2023-03-13T07:37:17.484Z,1.67
2023-03-13T07:42:18.937Z,1.67
2023-03-13T07:47:20.809Z,1.80
2023-03-13T07:52:23.069Z,2.25
2023-03-13T07:57:24.515Z,1.45
2023-03-13T08:02:26.090Z,1.52
2023-03-13T08:07:27.612Z,1.92
2023-03-13T08:12:29.070Z,1.63
2023-03-13T08:17:30.811Z,1.92
2023-03-13T08:27:33.612Z,1.63
2023-03-13T08:32:36.329Z,1.85
2023-03-13T08:37:37.808Z,2.28
2023-03-13T08:42:40.248Z,1.73
2023-03-13T08:47:41.756Z,1.42
2023-03-13T08:52:44.695Z,1.52
2023-03-13T08:57:46.135Z,1.10
2023-03-13T09:02:47.617Z,0.85
2023-03-13T09:07:49.528Z,0.90
2023-03-13T09:12:51.000Z,1.00
2023-03-13T09:17:52.475Z,1.20
2023-03-13T09:22:53.975Z,0.65
2023-03-13T09:27:55.422Z,0.90
2023-03-13T09:39:59.086Z,1.10
2023-03-13T09:45:12.456Z,1.00
2023-03-13T09:50:23.975Z,0.80
2023-03-13T09:55:38.035Z,0.82
2023-03-13T10:00:42.448Z,0.90
2023-03-13T10:05:53.070Z,0.77
2023-03-13T10:11:02.360Z,1.00
2023-03-13T10:16:32.238Z,0.98
2023-03-13T10:21:36.257Z,0.80
2023-03-13T10:26:38.150Z,1.00
2023-03-13T10:31:39.834Z,0.80
2023-03-13T10:36:49.433Z,1.00
2023-03-13T10:42:19.420Z,0.77
2023-03-13T10:47:21.022Z,0.88
2023-03-13T10:52:30.863Z,0.80
2023-03-13T10:57:35.602Z,0.82
2023-03-13T11:02:39.182Z,1.10
2023-03-13T11:07:40.770Z,0.80
2023-03-13T11:18:10.715Z,0.90
2023-03-13T11:23:48.403Z,0.90
2023-03-13T11:29:04.589Z,0.60
2023-03-13T11:34:13.427Z,0.90
2023-03-13T11:39:38.552Z,0.73
2023-03-13T11:45:01.187Z,0.70
2023-03-13T12:02:29.491Z,0.82
2023-03-13T12:08:25.151Z,0.90
2023-03-13T12:14:38.722Z,0.73
2023-03-13T12:26:15.641Z,0.60
2023-03-13T12:31:29.904Z,0.68
2023-03-13T12:36:44.325Z,0.80
2023-03-13T12:42:16.149Z,0.90
2023-03-13T12:47:40.908Z,0.70
2023-03-13T12:53:05.485Z,0.90
2023-03-13T12:58:22.198Z,0.82
2023-03-13T13:03:38.268Z,0.80
2023-03-13T13:09:06.836Z,0.90
2023-03-13T13:14:17.492Z,1.08
2023-03-13T13:19:25.143Z,1.05
2023-03-13T13:24:50.733Z,1.30
2023-03-13T13:30:02.300Z,2.35
2023-03-13T13:35:07.024Z,0.90
2023-03-13T13:40:21.455Z,1.15
2023-03-13T13:45:26.600Z,1.70
2023-03-13T13:50:28.990Z,1.30
2023-03-13T13:55:43.817Z,1.58
2023-03-13T14:00:55.376Z,0.95
2023-03-13T14:06:02.008Z,1.08
2023-03-13T14:11:28.574Z,0.90
2023-03-13T14:16:30.098Z,1.13
2023-03-13T14:21:33.146Z,1.23
2023-03-13T14:26:43.106Z,1.13
2023-03-13T14:31:52.394Z,0.70
2023-03-13T14:37:17.418Z,1.20
2023-03-13T14:42:19.763Z,0.82
2023-03-13T14:47:27.028Z,1.30
2023-03-13T14:52:30.040Z,1.02
2023-03-13T14:57:32.638Z,1.10
2023-03-13T15:02:34.487Z,1.65
2023-03-13T15:07:53.555Z,0.90
2023-03-13T15:12:55.114Z,1.00
2023-03-13T15:17:56.616Z,1.00
2023-03-13T15:22:58.177Z,1.30
2023-03-13T15:27:59.683Z,1.10
2023-03-13T15:33:01.268Z,0.90
2023-03-13T15:38:03.168Z,0.80
2023-03-13T15:43:22.381Z,0.90
2023-03-13T15:48:31.770Z,1.20
2023-03-13T15:53:37.644Z,1.00
2023-03-13T15:58:39.150Z,0.70
2023-03-13T16:03:41.237Z,0.98
2023-03-13T16:08:45.082Z,0.93
2023-03-13T16:13:46.525Z,0.77
2023-03-13T16:18:52.621Z,0.95
2023-03-13T16:24:12.780Z,0.90
2023-03-13T16:30:17.016Z,0.90
2023-03-13T16:35:18.905Z,0.90
2023-03-13T16:40:24.330Z,0.90
2023-03-13T16:45:27.150Z,0.90
2023-03-13T16:50:33.353Z,2.92
2023-03-13T16:55:37.252Z,2.10
2023-03-13T17:00:38.748Z,1.40
2023-03-13T17:05:40.210Z,1.23
2023-03-13T17:10:41.646Z,2.78
2023-03-13T17:15:43.124Z,4.15
2023-03-13T17:20:44.639Z,4.00
2023-03-13T17:25:46.744Z,2.53
2023-03-13T17:30:48.252Z,1.40
2023-03-13T17:35:49.766Z,2.83
2023-03-13T17:40:51.246Z,5.38
2023-03-13T17:45:53.462Z,1.90
2023-03-13T17:50:56.012Z,2.60
2023-03-13T17:55:57.475Z,1.98
2023-03-13T18:00:58.937Z,1.40
2023-03-13T18:06:00.524Z,1.73
2023-03-13T18:11:01.988Z,1.65
2023-03-13T18:16:11.225Z,1.50
2023-03-13T18:21:12.714Z,1.35
2023-03-13T18:26:23.894Z,1.50
2023-03-13T18:31:35.325Z,1.65
2023-03-13T18:36:37.901Z,1.67
2023-03-13T18:41:39.496Z,1.20
2023-03-13T18:46:42.154Z,1.70
2023-03-13T18:51:44.271Z,1.40
2023-03-13T18:56:47.393Z,1.90
2023-03-13T19:01:49.750Z,1.80
2023-03-13T19:06:53.183Z,1.63
2023-03-13T19:11:54.623Z,1.70
2023-03-13T19:21:59.085Z,1.77
2023-03-13T19:27:00.712Z,1.33
2023-03-13T19:32:06.729Z,0.93
2023-03-13T19:37:10.535Z,1.40
2023-03-13T19:42:11.995Z,1.40
2023-03-13T19:52:16.365Z,1.10
2023-03-13T19:57:17.918Z,1.38
2023-03-13T20:02:19.396Z,1.25
2023-03-13T20:07:20.890Z,1.10
2023-03-13T20:45:38.328Z,0.93
2023-03-13T20:50:39.817Z,0.70
2023-03-13T21:00:43.787Z,0.50
2023-03-13T21:05:45.490Z,0.70
2023-03-13T21:10:46.936Z,0.70
2023-03-13T21:20:49.949Z,0.50
2023-03-13T21:30:57.173Z,0.75
2023-03-13T21:35:58.663Z,0.63
2023-03-13T21:46:01.493Z,0.60
2023-03-13T21:51:02.988Z,0.50
2023-03-13T22:01:06.189Z,0.50
2023-03-13T22:06:16.274Z,0.50
2023-03-13T22:11:18.400Z,0.50
2023-03-13T22:16:21.076Z,0.40
2023-03-13T22:21:22.606Z,0.60
2023-03-13T22:31:25.451Z,0.60
2023-03-13T22:41:28.272Z,0.60
2023-03-13T22:46:29.745Z,0.63
2023-03-13T22:56:32.579Z,0.65
2023-03-13T23:06:35.461Z,0.63
2023-03-13T23:16:38.406Z,0.80
2023-03-13T23:26:41.198Z,0.60
2023-03-13T23:31:42.652Z,0.50
2023-03-13T23:41:45.454Z,0.57
2023-03-13T23:46:46.906Z,0.73
2023-03-13T23:51:48.353Z,0.60
